Time;durP1;ratioP1;P1;durP2;ratioP2;P2;SDS_P1;SDS_P2;PMS_P1;PMS_P2;Temp;Humidity;BMP_temperature;BMP_pressure;BME280_temperature;BME280_humidity;BME280_pressure;Samples;Min_cycle;Max_cycle;Signal;HPM_P1;HPM_P2
2022/10/12 04:02:03;;;;;;;22.20;20.00;;;13.40;99.90;;;;;;5226109;23;20589;-63
2022/10/12 04:04:31;;;;;;;20.50;18.70;;;13.30;99.90;;;;;;4978080;28;20462;-63
2022/10/12 04:06:57;;;;;;;21.50;19.20;;;13.30;99.90;;;;;;4978280;28;20461;-64
2022/10/12 04:09:24;;;;;;;22.57;19.97;;;13.30;99.90;;;;;;4977898;28;20458;-63
2022/10/12 04:11:51;;;;;;;23.80;19.37;;;13.30;99.90;;;;;;4977615;28;20474;-63
2022/10/12 04:14:17;;;;;;;33.83;20.70;;;13.30;99.90;;;;;;4977819;28;20454;-63
2022/10/12 04:16:44;;;;;;;21.60;19.30;;;13.30;99.90;;;;;;4977787;28;20455;-63
2022/10/12 04:19:13;;;;;;;26.70;20.90;;;13.20;99.90;;;;;;4977892;28;20458;-63
2022/10/12 04:21:40;;;;;;;23.83;21.23;;;13.20;99.90;;;;;;4977528;28;20981;-63
2022/10/12 04:24:07;;;;;;;24.73;21.90;;;13.10;99.90;;;;;;4977828;28;20866;-63
2022/10/12 04:26:34;;;;;;;26.10;21.73;;;13.10;99.90;;;;;;4977636;28;20513;-62
2022/10/12 04:29:00;;;;;;;24.83;21.43;;;13.00;99.90;;;;;;4977854;28;20486;-63
2022/10/12 04:31:27;;;;;;;23.13;20.63;;;13.00;99.90;;;;;;4977709;28;20478;-63
2022/10/12 04:33:55;;;;;;;24.60;22.20;;;12.90;99.90;;;;;;4977725;28;20463;-63
2022/10/12 04:36:23;;;;;;;24.40;21.50;;;12.90;99.90;;;;;;4977759;28;20557;-63
2022/10/12 04:38:50;;;;;;;23.00;20.57;;;12.90;99.90;;;;;;4979112;28;20509;-63
2022/10/12 04:41:17;;;;;;;23.80;21.30;;;12.90;99.90;;;;;;4978287;28;20776;-63
2022/10/12 04:43:44;;;;;;;23.80;21.30;;;13.00;99.90;;;;;;4977945;28;20825;-64
2022/10/12 04:46:11;;;;;;;26.00;20.97;;;12.90;99.90;;;;;;4977542;28;20478;-63
2022/10/12 04:48:37;;;;;;;25.17;22.80;;;12.90;99.90;;;;;;4977453;28;20550;-64
2022/10/12 04:51:05;;;;;;;24.30;20.60;;;12.90;99.90;;;;;;4976913;28;20537;-64
2022/10/12 04:53:33;;;;;;;22.07;19.97;;;13.00;99.90;;;;;;4977598;28;20458;-65
2022/10/12 04:56:02;;;;;;;23.10;19.90;;;13.00;99.90;;;;;;4977207;28;20455;-64
2022/10/12 04:58:29;;;;;;;23.43;21.13;;;12.90;99.90;;;;;;4977077;28;20556;-64
2022/10/12 05:00:55;;;;;;;22.43;20.10;;;12.90;99.90;;;;;;4976739;28;20546;-64
2022/10/12 05:03:22;;;;;;;29.70;21.27;;;13.00;99.90;;;;;;4977177;28;20493;-64
2022/10/12 05:05:49;;;;;;;22.90;20.57;;;13.00;99.90;;;;;;4976755;28;20471;-64
2022/10/12 05:08:15;;;;;;;23.17;20.23;;;13.00;99.90;;;;;;4977307;28;20455;-64
2022/10/12 05:10:45;;;;;;;25.07;20.50;;;13.10;99.90;;;;;;4976930;28;20510;-63
2022/10/12 05:13:11;;;;;;;23.80;21.40;;;13.10;99.90;;;;;;4977508;28;20443;-64
2022/10/12 05:15:38;;;;;;;27.80;22.60;;;13.20;99.90;;;;;;4977004;28;20506;-64
2022/10/12 05:18:05;;;;;;;26.67;21.43;;;13.20;99.90;;;;;;4977024;28;20450;-64
2022/10/12 05:20:31;;;;;;;27.93;23.83;;;13.20;99.90;;;;;;4977159;28;20478;-63
2022/10/12 05:22:59;;;;;;;29.30;22.63;;;13.30;99.90;;;;;;4977083;28;21008;-63
2022/10/12 05:25:28;;;;;;;25.53;23.00;;;13.30;99.90;;;;;;4976674;28;21067;-64
2022/10/12 05:27:56;;;;;;;25.57;20.33;;;13.40;99.90;;;;;;4977175;28;20454;-62
2022/10/12 05:30:23;;;;;;;30.63;23.37;;;13.40;99.90;;;;;;4976985;28;20818;-62
2022/10/12 05:32:50;;;;;;;26.00;23.50;;;13.40;99.90;;;;;;4977084;28;20454;-64
2022/10/12 05:35:17;;;;;;;26.43;22.90;;;13.40;99.90;;;;;;4976986;28;20462;-64
2022/10/12 05:37:44;;;;;;;31.97;25.13;;;13.50;99.90;;;;;;4976728;28;20458;-65
2022/10/12 05:40:11;;;;;;;30.83;24.90;;;13.50;99.90;;;;;;4976949;28;20454;-65
2022/10/12 05:42:37;;;;;;;29.23;26.37;;;13.50;99.90;;;;;;4977470;28;20454;-64
2022/10/12 05:45:06;;;;;;;28.10;24.77;;;13.50;99.90;;;;;;4976923;28;20458;-64
2022/10/12 05:47:33;;;;;;;29.23;23.80;;;13.50;99.90;;;;;;4976443;28;20505;-64
2022/10/12 05:50:00;;;;;;;31.90;25.20;;;13.50;99.90;;;;;;4976356;28;20454;-64
2022/10/12 05:52:27;;;;;;;31.90;25.80;;;13.50;99.90;;;;;;4976198;28;20478;-64
2022/10/12 05:54:53;;;;;;;28.10;25.00;;;13.50;99.90;;;;;;4976433;28;20513;-64
2022/10/12 05:57:20;;;;;;;25.57;22.83;;;13.40;99.90;;;;;;4976744;28;20455;-64
2022/10/12 05:59:47;;;;;;;30.73;23.67;;;13.40;99.90;;;;;;4976219;28;20443;-63
2022/10/12 06:02:16;;;;;;;26.47;23.63;;;13.50;99.90;;;;;;4980256;28;20491;-64
2022/10/12 06:04:42;;;;;;;27.23;22.20;;;13.40;99.90;;;;;;4981928;28;20455;-64
2022/10/12 06:07:10;;;;;;;26.93;24.10;;;13.40;99.90;;;;;;4976057;28;20479;-64
2022/10/12 06:09:38;;;;;;;28.43;23.70;;;13.40;99.90;;;;;;4976063;28;20505;-63
2022/10/12 06:12:05;;;;;;;30.27;25.83;;;13.40;99.90;;;;;;4976023;28;20475;-64
2022/10/12 06:14:32;;;;;;;27.83;22.93;;;13.40;99.90;;;;;;4975881;28;20461;-64
2022/10/12 06:16:59;;;;;;;30.97;23.77;;;13.40;99.90;;;;;;4975899;28;20455;-63
2022/10/12 06:19:27;;;;;;;22.97;20.53;;;13.40;99.90;;;;;;4975782;28;20517;-63
2022/10/12 06:21:53;;;;;;;28.97;22.20;;;13.40;99.90;;;;;;4975769;28;20512;-63
2022/10/12 06:24:20;;;;;;;26.20;21.97;;;13.40;99.90;;;;;;4975744;28;20517;-63
2022/10/12 06:26:46;;;;;;;26.37;23.83;;;13.40;99.90;;;;;;4975658;28;20482;-65
2022/10/12 06:29:13;;;;;;;26.90;23.73;;;13.40;99.90;;;;;;4975614;28;20513;-63
2022/10/12 06:31:40;;;;;;;27.10;24.40;;;13.40;99.90;;;;;;4975793;28;20479;-63
2022/10/12 06:34:06;;;;;;;28.83;24.43;;;13.40;99.90;;;;;;4976806;28;20513;-64
2022/10/12 06:36:34;;;;;;;26.13;23.37;;;13.40;99.90;;;;;;4976129;28;20459;-63
2022/10/12 06:39:01;;;;;;;27.77;22.93;;;13.40;99.90;;;;;;4975370;28;20455;-64
2022/10/12 06:41:28;;;;;;;23.97;21.43;;;13.40;99.90;;;;;;4975661;28;20525;-64
2022/10/12 06:43:54;;;;;;;25.23;22.60;;;13.50;99.90;;;;;;4975467;28;20868;-64
2022/10/12 06:46:21;;;;;;;24.80;22.33;;;13.60;99.90;;;;;;4975269;28;20591;-64
2022/10/12 06:48:48;;;;;;;24.13;21.63;;;13.70;99.90;;;;;;4976137;28;20442;-64
2022/10/12 06:51:15;;;;;;;24.70;22.10;;;13.80;99.90;;;;;;4975210;28;20475;-64
2022/10/12 06:53:43;;;;;;;26.03;23.00;;;13.80;99.90;;;;;;4975317;28;20804;-64
2022/10/12 06:56:10;;;;;;;26.90;23.63;;;13.90;99.90;;;;;;4976292;28;20454;-63
2022/10/12 06:58:37;;;;;;;30.33;24.30;;;13.90;99.90;;;;;;4975192;28;20459;-63
2022/10/12 07:01:05;;;;;;;28.10;25.23;;;14.00;99.90;;;;;;4975153;28;20505;-63
2022/10/12 07:03:32;;;;;;;31.03;26.17;;;14.00;99.90;;;;;;4975166;28;20454;-63
2022/10/12 07:06:06;;;;;;;28.30;25.27;;;14.00;99.90;;;;;;4974973;28;20478;-64
2022/10/12 07:08:33;;;;;;;33.73;26.83;;;13.90;99.90;;;;;;4975153;28;20446;-64
2022/10/12 07:11:01;;;;;;;30.53;27.17;;;13.90;99.90;;;;;;4975070;28;20525;-63
2022/10/12 07:13:28;;;;;;;28.23;25.23;;;14.00;99.90;;;;;;4974567;28;20520;-64
2022/10/12 07:15:55;;;;;;;30.10;24.60;;;13.90;99.90;;;;;;4974991;28;20870;-64
2022/10/12 07:18:21;;;;;;;26.83;24.20;;;14.10;99.90;;;;;;4974786;28;20957;-63
2022/10/12 07:20:48;;;;;;;26.27;23.50;;;14.20;99.90;;;;;;4974456;28;20478;-64
2022/10/12 07:23:15;;;;;;;25.93;21.90;;;14.30;99.90;;;;;;4975070;28;20443;-63
2022/10/12 07:25:48;;;;;;;24.13;21.70;;;14.40;99.90;;;;;;4975077;28;20466;-62
2022/10/12 07:28:16;;;;;;;25.73;23.17;;;14.50;99.90;;;;;;4975184;28;20525;-63
2022/10/12 07:30:43;;;;;;;27.10;23.20;;;14.70;99.90;;;;;;4975003;28;20530;-63
2022/10/12 07:33:10;;;;;;;26.00;22.73;;;14.80;99.90;;;;;;4975177;28;20455;-64
2022/10/12 07:35:36;;;;;;;27.90;22.97;;;14.80;99.90;;;;;;4974827;28;20532;-63
2022/10/12 07:38:03;;;;;;;25.17;22.50;;;14.80;99.90;;;;;;4975018;28;20458;-64
2022/10/12 07:40:29;;;;;;;24.03;21.80;;;14.90;99.90;;;;;;4974459;28;20458;-63
2022/10/12 07:42:57;;;;;;;23.20;20.80;;;15.00;99.90;;;;;;4974786;28;20455;-63
2022/10/12 07:45:27;;;;;;;22.87;20.77;;;15.00;99.90;;;;;;4974750;28;20534;-64
2022/10/12 07:47:54;;;;;;;23.00;20.60;;;15.10;99.90;;;;;;4974971;28;20479;-64
2022/10/12 07:50:21;;;;;;;22.10;19.90;;;15.10;99.90;;;;;;4974680;28;20463;-64
2022/10/12 07:52:48;;;;;;;23.90;21.40;;;15.20;99.90;;;;;;4975328;28;20552;-64
2022/10/12 07:55:14;;;;;;;21.90;19.60;;;15.20;99.90;;;;;;4974788;28;20493;-63
2022/10/12 07:57:43;;;;;;;24.47;21.57;;;15.20;99.90;;;;;;4974374;28;20866;-63
2022/10/12 08:00:10;;;;;;;23.03;20.60;;;15.20;99.90;;;;;;4974721;28;20462;-63
2022/10/12 08:02:38;;;;;;;22.37;19.97;;;15.30;99.90;;;;;;4974667;28;20454;-63
2022/10/12 08:05:05;;;;;;;22.60;20.60;;;15.40;99.90;;;;;;4974484;28;20455;-64
2022/10/12 08:07:32;;;;;;;21.87;19.70;;;15.50;99.90;;;;;;4974312;28;20482;-62
2022/10/12 08:09:59;;;;;;;21.07;19.00;;;15.60;99.90;;;;;;4974769;28;20455;-63
2022/10/12 08:12:25;;;;;;;21.73;18.30;;;15.70;99.90;;;;;;4974231;28;21056;-63
2022/10/12 08:14:52;;;;;;;21.10;19.10;;;15.80;99.90;;;;;;4974668;28;20521;-63
2022/10/12 08:17:19;;;;;;;21.20;19.20;;;15.90;99.90;;;;;;4974609;28;20922;-63
2022/10/12 08:19:47;;;;;;;19.80;17.73;;;16.00;99.90;;;;;;4974681;28;20513;-63
2022/10/12 08:22:13;;;;;;;21.50;19.20;;;16.10;99.90;;;;;;4974456;28;20525;-63
2022/10/12 08:24:40;;;;;;;22.70;20.40;;;16.20;99.90;;;;;;4974813;28;20854;-64
2022/10/12 08:27:06;;;;;;;24.37;20.60;;;16.30;99.90;;;;;;4977657;28;20474;-64
2022/10/12 08:29:33;;;;;;;21.83;19.60;;;16.30;99.90;;;;;;4977972;28;20454;-64
2022/10/12 08:32:00;;;;;;;22.07;19.80;;;16.30;99.90;;;;;;4977617;28;20475;-64
2022/10/12 08:34:29;;;;;;;21.77;19.50;;;16.30;99.90;;;;;;4977908;28;20803;-65
2022/10/12 08:36:58;;;;;;;21.73;19.70;;;16.40;99.90;;;;;;4977445;28;20989;-64
2022/10/12 08:39:25;;;;;;;24.30;20.47;;;16.40;99.90;;;;;;4977783;28;20454;-64
2022/10/12 08:42:00;;;;;;;21.97;19.60;;;16.50;99.90;;;;;;4977383;28;20478;-64
2022/10/12 08:44:45;;;;;;;23.60;20.87;;;16.50;99.90;;;;;;4977467;28;20790;-64
2022/10/12 08:47:16;;;;;;;23.37;20.37;;;16.60;99.90;;;;;;4977069;28;20992;-65
2022/10/12 08:49:44;;;;;;;22.10;19.80;;;16.70;99.90;;;;;;4977543;28;20446;-65
2022/10/12 08:52:22;;;;;;;24.97;21.23;;;16.70;99.90;;;;;;4977335;28;20478;-63
2022/10/12 08:54:49;;;;;;;28.80;21.00;;;16.70;99.90;;;;;;4977853;28;20435;-64
2022/10/12 08:57:17;;;;;;;26.83;20.90;;;16.80;99.90;;;;;;4982651;28;20451;-64
2022/10/12 08:59:45;;;;;;;26.13;20.37;;;17.00;99.90;;;;;;4984428;28;20465;-63
2022/10/12 09:02:31;;;;;;;25.13;21.60;;;17.10;99.90;;;;;;4978290;28;20553;-64
2022/10/12 09:05:01;;;;;;;22.73;19.87;;;17.40;99.90;;;;;;4976800;28;20954;-64
2022/10/12 09:07:31;;;;;;;23.43;19.47;;;17.90;99.90;;;;;;4976740;28;21001;-64
2022/10/12 09:10:08;;;;;;;25.47;20.50;;;18.60;99.90;;;;;;4977122;28;20443;-64
2022/10/12 09:12:45;;;;;;;21.63;19.47;;;19.30;99.90;;;;;;4976949;28;20475;-64
2022/10/12 09:15:17;;;;;;;22.63;19.40;;;19.90;99.90;;;;;;4977858;28;20831;-66
2022/10/12 09:17:47;;;;;;;21.67;19.47;;;20.40;99.90;;;;;;4976972;28;20855;-65
2022/10/12 09:20:19;;;;;;;23.33;18.77;;;20.90;99.90;;;;;;4976815;28;20506;-64
2022/10/12 09:22:51;;;;;;;21.93;19.60;;;21.40;99.90;;;;;;4976979;28;20443;-64
2022/10/12 09:25:20;;;;;;;21.80;19.43;;;21.50;99.90;;;;;;4976938;28;20443;-65
2022/10/12 09:27:47;;;;;;;23.70;19.87;;;21.80;99.90;;;;;;4976471;28;20478;-64
2022/10/12 09:30:16;;;;;;;21.43;19.40;;;21.90;99.90;;;;;;4976858;28;20545;-64
2022/10/12 09:33:12;;;;;;;21.90;19.60;;;22.00;99.90;;;;;;4976688;28;20454;-64
2022/10/12 09:35:40;;;;;;;21.87;19.80;;;21.90;99.90;;;;;;4976494;28;20509;-64
2022/10/12 09:38:10;;;;;;;28.20;21.10;;;21.80;99.90;;;;;;4976622;28;20501;-65
2022/10/12 09:40:38;;;;;;;23.50;21.00;;;21.30;99.90;;;;;;4976568;28;20478;-64
2022/10/12 09:43:06;;;;;;;25.57;21.13;;;21.00;99.90;;;;;;4976729;28;20454;-65
2022/10/12 09:45:34;;;;;;;23.83;21.40;;;20.80;99.90;;;;;;4976488;28;20455;-63
2022/10/12 09:48:20;;;;;;;23.30;20.97;;;20.60;99.90;;;;;;4976525;28;20529;-64
2022/10/12 09:50:50;;;;;;;21.90;19.60;;;20.40;99.90;;;;;;4977110;28;20548;-64
2022/10/12 09:53:43;;;;;;;24.63;22.03;;;19.90;99.90;;;;;;4976551;28;20435;-65
2022/10/12 09:56:13;;;;;;;24.47;21.93;;;19.70;99.90;;;;;;4973296;28;20505;-64
2022/10/12 09:58:50;;;;;;;24.73;21.40;;;19.40;99.90;;;;;;4976053;28;20790;-65
2022/10/12 10:01:22;;;;;;;23.93;21.27;;;19.20;99.90;;;;;;4976027;28;20533;-64
2022/10/12 10:03:51;;;;;;;23.57;17.80;;;19.10;99.90;;;;;;4976249;28;20439;-63
2022/10/12 10:06:23;;;;;;;24.63;18.30;;;19.00;99.90;;;;;;4976205;28;20450;-65
2022/10/12 10:08:51;;;;;;;19.60;17.43;;;18.90;99.90;;;;;;4976138;28;20438;-64
2022/10/12 10:11:21;;;;;;;25.43;19.90;;;18.80;99.90;;;;;;4976044;28;20470;-64
2022/10/12 10:13:52;;;;;;;24.00;18.23;;;18.70;99.90;;;;;;4976130;28;20439;-65
2022/10/12 10:16:21;;;;;;;22.00;19.53;;;18.60;99.90;;;;;;4976299;28;20530;-63
2022/10/12 10:18:50;;;;;;;23.23;19.13;;;18.40;99.90;;;;;;4976056;28;20501;-65
2022/10/12 10:21:27;;;;;;;24.10;19.80;;;18.40;99.90;;;;;;4975768;28;20479;-63
2022/10/12 10:23:57;;;;;;;31.03;20.60;;;18.30;99.90;;;;;;4975795;28;20505;-64
2022/10/12 10:26:25;;;;;;;31.17;22.83;;;18.20;99.90;;;;;;4975849;28;20439;-64
2022/10/12 10:28:58;;;;;;;25.63;22.03;;;18.10;99.90;;;;;;4975725;28;20478;-64
2022/10/12 10:31:28;;;;;;;26.80;22.23;;;18.00;99.90;;;;;;4975587;28;20481;-64
2022/10/12 10:34:11;;;;;;;24.97;22.33;;;18.00;99.90;;;;;;4976449;28;20443;-64
2022/10/12 10:36:40;;;;;;;26.77;21.60;;;17.90;99.90;;;;;;4975594;28;20502;-64
2022/10/12 10:39:17;;;;;;;30.83;22.47;;;17.90;99.90;;;;;;4975565;28;20509;-63
2022/10/12 10:41:44;;;;;;;26.80;21.60;;;17.90;99.90;;;;;;4975517;28;20529;-64
2022/10/12 10:44:24;;;;;;;22.27;19.77;;;17.90;99.90;;;;;;4975682;28;20870;-64
2022/10/12 10:46:52;;;;;;;24.20;20.07;;;17.90;99.90;;;;;;4976037;28;20789;-63
2022/10/12 10:49:25;;;;;;;25.57;19.23;;;17.90;99.90;;;;;;4975165;28;20477;-64
2022/10/12 10:51:55;;;;;;;27.60;17.23;;;17.90;99.90;;;;;;4975250;28;20884;-65
2022/10/12 10:54:28;;;;;;;24.50;18.50;;;18.00;99.90;;;;;;4975249;28;20458;-65
2022/10/12 10:57:00;;;;;;;18.80;15.73;;;18.00;99.90;;;;;;4975048;28;20918;-63
2022/10/12 10:59:36;;;;;;;21.83;16.80;;;18.10;99.90;;;;;;4975473;28;20529;-63
2022/10/12 11:02:14;;;;;;;17.17;15.33;;;18.10;99.90;;;;;;4974664;28;20855;-63
2022/10/12 11:04:45;;;;;;;17.83;15.07;;;18.20;99.90;;;;;;4975311;28;20443;-64
2022/10/12 11:07:21;;;;;;;19.10;16.53;;;18.30;99.90;;;;;;4974825;28;20805;-64
2022/10/12 11:09:54;;;;;;;23.30;15.17;;;18.30;99.90;;;;;;4975296;28;20447;-63
2022/10/12 11:12:25;;;;;;;15.60;14.00;;;18.30;99.90;;;;;;4975315;28;20836;-63
2022/10/12 11:14:55;;;;;;;15.00;13.50;;;18.30;99.90;;;;;;4975003;28;20808;-64
2022/10/12 11:17:27;;;;;;;16.60;13.10;;;18.40;99.90;;;;;;4974986;28;20435;-63
2022/10/12 11:20:05;;;;;;;16.30;13.90;;;18.50;99.90;;;;;;4975034;28;20446;-63
2022/10/12 11:22:39;;;;;;;20.03;13.80;;;18.50;99.90;;;;;;4974915;28;20482;-64
2022/10/12 11:25:13;;;;;;;19.33;14.33;;;18.60;99.90;;;;;;4974877;28;20443;-63
2022/10/12 11:27:41;;;;;;;15.27;13.53;;;18.70;99.90;;;;;;4975457;28;20534;-64
2022/10/12 11:30:14;;;;;;;15.23;13.63;;;18.80;99.90;;;;;;4974601;28;20878;-63
2022/10/12 11:32:44;;;;;;;15.20;13.63;;;18.90;99.90;;;;;;4974792;28;20443;-63
2022/10/12 11:35:16;;;;;;;15.77;13.53;;;18.90;99.90;;;;;;4975877;28;20447;-64
2022/10/12 11:37:46;;;;;;;21.13;12.90;;;19.00;99.90;;;;;;4976449;28;20443;-64
2022/10/12 11:40:20;;;;;;;19.70;14.27;;;19.10;99.90;;;;;;4974728;28;20906;-65
2022/10/12 11:42:49;;;;;;;16.33;13.87;;;19.10;99.90;;;;;;4975193;28;20442;-64
2022/10/12 11:45:22;;;;;;;18.23;13.07;;;19.30;99.90;;;;;;4974880;28;20514;-64
2022/10/12 11:47:53;;;;;;;16.43;13.63;;;19.70;99.90;;;;;;4974658;28;20466;-64
2022/10/12 11:50:28;;;;;;;15.70;13.03;;;20.20;99.90;;;;;;4976608;28;20443;-63
2022/10/12 11:52:57;;;;;;;18.80;13.73;;;20.40;99.90;;;;;;4977986;28;20501;-64
2022/10/12 11:55:44;;;;;;;14.00;11.97;;;20.50;99.90;;;;;;4976241;28;20477;-65
2022/10/12 11:58:17;;;;;;;14.93;13.10;;;20.60;99.90;;;;;;4974762;28;20449;-64
2022/10/12 12:01:02;;;;;;;17.30;12.20;;;20.60;99.90;;;;;;4976052;28;20552;-64
2022/10/12 12:03:34;;;;;;;14.43;13.03;;;20.70;99.90;;;;;;4978413;28;20493;-64
2022/10/12 12:06:42;;;;;;;13.60;11.27;;;20.70;99.90;;;;;;4977951;28;20910;-64
2022/10/12 12:09:34;;;;;;;15.13;11.23;;;20.70;99.90;;;;;;4979062;28;20462;-63
2022/10/12 12:12:17;;;;;;;17.57;12.50;;;20.70;99.90;;;;;;4975696;28;20898;-65
2022/10/12 12:15:01;;;;;;;11.53;10.40;;;20.70;99.90;;;;;;4979029;28;20443;-64
2022/10/12 12:17:30;;;;;;;19.57;12.00;;;20.70;99.90;;;;;;4976509;28;21012;-64
2022/10/12 12:19:58;;;;;;;13.07;11.10;;;20.80;99.90;;;;;;4978472;28;20818;-64
2022/10/12 12:22:49;;;;;;;13.57;11.90;;;20.80;99.90;;;;;;4978050;28;20470;-64
2022/10/12 12:25:29;;;;;;;16.90;10.97;;;20.90;99.90;;;;;;4978017;28;20804;-63
2022/10/12 12:27:59;;;;;;;13.87;10.00;;;20.90;99.90;;;;;;4977791;28;20466;-64
2022/10/12 12:30:33;;;;;;;13.50;10.27;;;21.10;99.90;;;;;;4977813;28;20457;-64
2022/10/12 12:33:02;;;;;;;14.23;11.33;;;21.00;99.90;;;;;;4977916;28;20459;-64
2022/10/12 12:35:35;;;;;;;16.37;12.83;;;21.20;99.90;;;;;;4977356;28;20945;-65
2022/10/12 12:38:07;;;;;;;14.00;11.37;;;21.20;99.90;;;;;;4977751;28;20442;-64
2022/10/12 12:40:35;;;;;;;15.50;11.83;;;21.40;99.90;;;;;;4977576;28;20478;-63
2022/10/12 12:43:37;;;;;;;12.17;10.87;;;21.30;99.90;;;;;;4978135;28;20513;-64
2022/10/12 12:46:06;;;;;;;12.67;9.60;;;21.60;99.90;;;;;;4977697;28;20442;-64
2022/10/12 12:48:56;;;;;;;13.23;9.73;;;21.70;99.90;;;;;;4977556;28;20553;-65
2022/10/12 12:51:26;;;;;;;14.70;10.10;;;21.90;99.90;;;;;;4977432;28;20612;-65
2022/10/12 12:53:56;;;;;;;18.97;10.67;;;21.90;99.90;;;;;;4977347;28;20458;-64
2022/10/12 12:56:31;;;;;;;12.30;9.80;;;21.90;99.90;;;;;;4977522;28;20447;-64
2022/10/12 12:59:16;;;;;;;12.00;9.83;;;21.90;99.90;;;;;;4977332;28;20474;-64
2022/10/12 13:02:04;;;;;;;13.40;10.80;;;21.70;99.90;;;;;;4977066;28;20541;-64
2022/10/12 13:04:47;;;;;;;17.13;11.40;;;21.60;99.90;;;;;;4977442;28;20442;-64
2022/10/12 13:07:53;;;;;;;16.33;12.87;;;21.50;99.90;;;;;;4977360;28;20439;-65
2022/10/12 13:10:30;;;;;;;12.33;10.10;;;21.40;99.90;;;;;;4977167;28;20796;-63
2022/10/12 13:13:19;;;;;;;12.20;10.93;;;21.30;99.90;;;;;;4976770;28;20430;-64
2022/10/12 13:16:13;;;;;;;13.30;11.87;;;21.00;99.90;;;;;;4977045;28;20450;-64
2022/10/12 13:18:49;;;;;;;15.63;11.70;;;20.80;99.90;;;;;;4977598;28;20427;-64
2022/10/12 13:21:18;;;;;;;12.90;10.90;;;20.60;99.90;;;;;;4976959;28;20470;-64
2022/10/12 13:23:48;;;;;;;13.10;11.70;;;20.40;99.90;;;;;;4976846;28;20450;-64
2022/10/12 13:26:20;;;;;;;11.90;10.27;;;20.30;99.90;;;;;;4977798;28;20443;-64
2022/10/12 13:28:49;;;;;;;12.20;10.30;;;20.30;99.90;;;;;;4977115;28;20467;-64
2022/10/12 13:31:22;;;;;;;11.53;9.90;;;20.50;99.90;;;;;;4977282;28;20553;-64
2022/10/12 13:33:58;;;;;;;16.20;10.53;;;20.50;99.90;;;;;;4977219;28;20443;-64
2022/10/12 13:36:27;;;;;;;12.27;9.90;;;20.70;99.90;;;;;;4977091;28;20442;-64
2022/10/12 13:38:56;;;;;;;12.77;10.57;;;20.70;99.90;;;;;;4977000;28;20455;-64
2022/10/12 13:41:25;;;;;;;14.80;9.83;;;20.60;99.90;;;;;;4976746;28;20471;-64
2022/10/12 13:43:55;;;;;;;11.07;9.90;;;20.50;99.90;;;;;;4976634;28;20455;-64
2022/10/12 13:46:39;;;;;;;15.83;10.07;;;20.30;99.90;;;;;;4976870;28;20478;-64
2022/10/12 13:49:15;;;;;;;12.17;10.30;;;20.30;99.90;;;;;;4976391;28;20462;-64
2022/10/12 13:51:43;;;;;;;13.03;11.50;;;20.30;99.90;;;;;;4978923;28;20479;-64
2022/10/12 13:54:15;;;;;;;13.17;11.80;;;20.20;99.90;;;;;;4977844;28;20522;-64
2022/10/12 13:56:42;;;;;;;14.50;9.87;;;20.10;99.90;;;;;;4977023;28;20454;-63
2022/10/12 13:59:15;;;;;;;11.77;10.30;;;20.10;99.90;;;;;;4977318;28;20985;-64
2022/10/12 14:01:52;;;;;;;13.37;10.53;;;20.10;99.90;;;;;;4977458;28;20510;-64
2022/10/12 14:04:19;;;;;;;10.83;9.60;;;20.10;99.90;;;;;;4981168;28;20449;-64
2022/10/12 14:06:55;;;;;;;12.60;8.37;;;20.20;99.90;;;;;;4987189;28;20462;-64
2022/10/12 14:09:25;;;;;;;9.20;8.27;;;20.20;99.90;;;;;;4987167;28;20553;-64
2022/10/12 14:11:54;;;;;;;10.33;7.73;;;20.30;99.90;;;;;;4986616;28;20525;-63
2022/10/12 14:14:29;;;;;;;9.97;8.80;;;20.30;99.90;;;;;;4985044;28;20454;-64
2022/10/12 14:16:57;;;;;;;9.60;8.70;;;20.40;99.90;;;;;;4985228;28;20449;-65
2022/10/12 14:19:41;;;;;;;9.90;8.97;;;20.50;99.90;;;;;;4985080;28;20454;-64
2022/10/12 14:22:08;;;;;;;10.17;8.10;;;20.50;99.90;;;;;;4984592;28;20495;-65
2022/10/12 14:24:36;;;;;;;9.47;8.47;;;20.40;99.90;;;;;;4984795;28;20454;-65
2022/10/12 14:27:05;;;;;;;11.17;9.20;;;20.40;99.90;;;;;;4982520;28;20514;-66
2022/10/12 14:29:35;;;;;;;8.97;8.07;;;20.50;99.90;;;;;;4977973;28;20479;-65
2022/10/12 14:32:05;;;;;;;9.23;8.37;;;20.30;99.90;;;;;;4976234;28;20475;-65
2022/10/12 14:34:44;;;;;;;10.93;9.10;;;20.20;99.90;;;;;;4975814;28;20442;-64
2022/10/12 14:37:28;;;;;;;10.53;8.87;;;20.10;99.90;;;;;;4975698;28;20474;-65
2022/10/12 14:39:59;;;;;;;9.40;8.40;;;20.00;99.90;;;;;;4975647;28;20457;-64
2022/10/12 14:42:34;;;;;;;13.67;8.43;;;19.90;99.90;;;;;;4975234;28;21005;-65
2022/10/12 14:45:01;;;;;;;11.27;8.03;;;19.80;99.90;;;;;;4979365;28;20450;-65
2022/10/12 14:47:32;;;;;;;9.03;7.67;;;19.70;99.90;;;;;;4984323;28;20462;-65
2022/10/12 14:50:06;;;;;;;14.80;8.57;;;19.70;99.90;;;;;;4979881;28;20462;-65
2022/10/12 14:52:37;;;;;;;9.50;8.27;;;19.70;99.90;;;;;;4975387;28;20521;-65
2022/10/12 14:55:05;;;;;;;13.97;9.47;;;19.70;99.90;;;;;;4975761;28;20450;-65
2022/10/12 14:57:32;;;;;;;8.50;7.67;;;19.60;99.90;;;;;;4975032;28;20930;-65
2022/10/12 14:59:59;;;;;;;10.90;7.97;;;19.70;99.90;;;;;;4975004;28;20938;-66
2022/10/12 15:02:29;;;;;;;11.13;10.03;;;19.60;99.90;;;;;;4974947;28;20490;-65
2022/10/12 15:04:57;;;;;;;9.80;8.80;;;19.50;99.90;;;;;;4975239;28;20446;-65
2022/10/12 15:07:29;;;;;;;9.07;8.27;;;19.40;99.90;;;;;;4975318;28;20458;-64
2022/10/12 15:09:56;;;;;;;13.50;7.70;;;19.30;99.90;;;;;;4975002;28;20473;-64
2022/10/12 15:12:24;;;;;;;11.83;7.97;;;19.20;99.90;;;;;;4975198;28;20479;-64
2022/10/12 15:14:53;;;;;;;11.40;8.10;;;19.20;99.90;;;;;;4975429;28;20447;-65
2022/10/12 15:17:20;;;;;;;10.27;9.23;;;19.10;99.90;;;;;;4975360;28;20450;-65
2022/10/12 15:19:49;;;;;;;16.07;8.53;;;19.00;99.90;;;;;;4975188;28;20470;-65
2022/10/12 15:22:18;;;;;;;11.17;8.10;;;18.90;99.90;;;;;;4975508;28;20474;-65
2022/10/12 15:24:46;;;;;;;13.83;8.30;;;18.90;99.90;;;;;;4975308;28;20622;-64
2022/10/12 15:27:12;;;;;;;10.70;7.87;;;18.80;99.90;;;;;;4975361;28;20455;-64
2022/10/12 15:29:39;;;;;;;11.30;7.50;;;18.70;99.90;;;;;;4975245;28;20478;-64
2022/10/12 15:32:07;;;;;;;9.53;8.03;;;18.60;99.90;;;;;;4975092;28;20474;-64
2022/10/12 15:34:33;;;;;;;9.70;7.40;;;18.50;99.90;;;;;;4976536;28;20486;-64
2022/10/12 15:37:01;;;;;;;9.20;7.70;;;18.50;99.90;;;;;;4981131;28;20481;-64
2022/10/12 15:39:28;;;;;;;7.30;6.60;;;18.40;99.90;;;;;;4980804;28;20462;-64
2022/10/12 15:41:55;;;;;;;9.77;7.40;;;18.30;99.90;;;;;;4983807;28;20474;-64
2022/10/12 15:44:21;;;;;;;9.40;7.77;;;18.30;99.90;;;;;;4983732;28;20443;-65
2022/10/12 15:46:50;;;;;;;6.90;6.20;;;18.30;99.90;;;;;;4983667;28;20508;-64
2022/10/12 15:49:18;;;;;;;6.97;6.27;;;18.20;99.90;;;;;;4982342;28;20533;-64
2022/10/12 15:51:48;;;;;;;8.83;7.23;;;18.20;99.90;;;;;;4981168;28;20482;-64
2022/10/12 15:54:16;;;;;;;8.73;7.87;;;18.20;99.90;;;;;;4979136;28;20465;-65
2022/10/12 15:56:43;;;;;;;12.17;7.93;;;18.20;99.90;;;;;;4979209;28;20447;-64
2022/10/12 15:59:10;;;;;;;9.97;7.03;;;18.20;99.90;;;;;;4979269;28;20862;-64
2022/10/12 16:01:37;;;;;;;8.43;7.53;;;18.10;99.90;;;;;;4979091;28;20498;-65
2022/10/12 16:04:05;;;;;;;9.53;6.60;;;18.10;99.90;;;;;;4978734;28;20458;-66
2022/10/12 16:06:32;;;;;;;9.73;7.40;;;18.00;99.90;;;;;;4978588;28;20799;-66
2022/10/12 16:08:59;;;;;;;7.07;6.40;;;18.00;99.90;;;;;;4978222;28;21000;-66
2022/10/12 16:11:27;;;;;;;8.10;7.07;;;18.00;99.90;;;;;;4978388;28;20478;-67
2022/10/12 16:13:53;;;;;;;7.60;6.93;;;18.00;99.90;;;;;;4978232;28;20466;-67
2022/10/12 16:16:20;;;;;;;8.97;7.00;;;17.90;99.90;;;;;;4978277;28;20870;-66
2022/10/12 16:18:47;;;;;;;8.63;6.97;;;17.90;99.90;;;;;;4978318;28;20454;-66
2022/10/12 16:21:13;;;;;;;7.30;6.57;;;17.80;99.90;;;;;;4978094;28;20474;-66
2022/10/12 16:23:40;;;;;;;11.40;6.83;;;17.80;99.90;;;;;;4978116;28;20449;-65
2022/10/12 16:26:09;;;;;;;12.23;6.70;;;17.70;99.90;;;;;;4978376;28;20489;-65
2022/10/12 16:28:37;;;;;;;8.50;7.20;;;17.60;99.90;;;;;;4978636;28;20458;-66
2022/10/12 16:31:09;;;;;;;8.07;6.70;;;17.50;99.90;;;;;;4978238;28;20478;-65
2022/10/12 16:33:35;;;;;;;8.63;6.90;;;17.40;99.90;;;;;;4978784;28;20439;-66
2022/10/12 16:36:08;;;;;;;7.50;6.80;;;17.30;99.90;;;;;;4977811;28;20455;-65
2022/10/12 16:38:35;;;;;;;10.97;7.23;;;17.20;99.90;;;;;;4977815;28;20442;-65
2022/10/12 16:41:08;;;;;;;10.10;8.00;;;17.10;99.90;;;;;;4977651;28;20474;-65
2022/10/12 16:43:34;;;;;;;7.80;6.87;;;17.00;99.90;;;;;;4977713;28;20501;-65
2022/10/12 16:46:02;;;;;;;8.13;7.40;;;16.90;99.90;;;;;;4976474;28;20965;-65
2022/10/12 16:48:31;;;;;;;9.23;8.43;;;16.80;99.90;;;;;;4977481;28;20522;-65